Time;durP1;ratioP1;P1;durP2;ratioP2;P2;SDS_P1;SDS_P2;PMS_P1;PMS_P2;Temp;Humidity;BMP_temperature;BMP_pressure;BME280_temperature;BME280_humidity;BME280_pressure;Samples;Min_cycle;Max_cycle;Signal;HPM_P1;HPM_P2
2022/03/27 00:01:16;;;;;;;6.53;2.35;;;;;;;;;;1683157;85;21124;-71
2022/03/27 00:03:42;;;;;;;6.28;2.58;;;;;;;;;;1683270;85;21501;-71
2022/03/27 00:06:08;;;;;;;3.33;1.90;;;;;;;;;;1683369;85;21092;-71
2022/03/27 00:08:34;;;;;;;4.45;1.95;;;;;;;;;;1683136;84;21117;-71
2022/03/27 00:13:47;;;;;;;4.12;1.80;;;;;;;;;;1683435;85;21552;-71
2022/03/27 00:16:15;;;;;;;4.42;2.30;;;;;;;;;;1683040;85;21082;-71
2022/03/27 00:18:41;;;;;;;2.40;1.70;;;;;;;;;;1683334;85;21049;-72
2022/03/27 00:21:09;;;;;;;4.22;1.82;;;;;;;;;;1683077;85;21088;-71
2022/03/27 00:23:36;;;;;;;5.55;1.60;;;;;;;;;;1683654;85;21053;-72
2022/03/27 00:26:03;;;;;;;7.30;2.05;;;;;;;;;;1680389;85;21890;-71
2022/03/27 00:28:33;;;;;;;4.22;1.80;;;;;;;;;;1675760;86;21058;-72
2022/03/27 00:31:02;;;;;;;3.20;2.10;;;;;;;;;;1675816;86;21050;-72
2022/03/27 00:33:28;;;;;;;4.05;2.05;;;;;;;;;;1675966;86;21074;-71
2022/03/27 00:35:55;;;;;;;6.28;2.20;;;;;;;;;;1675723;86;21059;-72
2022/03/27 00:38:21;;;;;;;3.62;1.70;;;;;;;;;;1675918;86;21117;-72
2022/03/27 00:40:52;;;;;;;3.52;2.00;;;;;;;;;;1675717;86;21014;-72
2022/03/27 00:43:20;;;;;;;2.87;1.70;;;;;;;;;;1676054;86;21089;-71
2022/03/27 00:45:47;;;;;;;2.62;1.80;;;;;;;;;;1674810;86;21097;-72
2022/03/27 00:48:14;;;;;;;3.92;1.80;;;;;;;;;;1675568;86;21114;-71
2022/03/27 00:50:41;;;;;;;2.00;1.60;;;;;;;;;;1675841;86;21138;-71
2022/03/27 00:53:08;;;;;;;3.22;1.65;;;;;;;;;;1675709;86;21081;-71
2022/03/27 00:55:35;;;;;;;4.60;1.92;;;;;;;;;;1676004;86;21077;-71
2022/03/27 00:58:02;;;;;;;6.00;1.57;;;;;;;;;;1675824;86;21561;-71
2022/03/27 01:03:18;;;;;;;6.53;1.50;;;;;;;;;;1716812;80;21179;-70
2022/03/27 01:05:45;;;;;;;2.90;1.62;;;;;;;;;;1651675;86;21099;-70
2022/03/27 01:10:23;;;;;;;6.05;1.75;;;;;;;;;;1801998;79;22790;-69
2022/03/27 01:12:50;;;;;;;2.50;1.40;;;;;;;;;;1761709;81;21032;-70
2022/03/27 01:15:34;;;;;;;2.70;1.82;;;;;;;;;;1761789;81;21068;-70
2022/03/27 01:18:00;;;;;;;6.80;1.55;;;;;;;;;;1762034;81;21060;-69
2022/03/27 01:20:32;;;;;;;2.95;1.20;;;;;;;;;;1761935;81;21091;-70
2022/03/27 01:22:59;;;;;;;2.37;1.37;;;;;;;;;;1762084;81;21028;-69
2022/03/27 01:25:25;;;;;;;1.20;1.10;;;;;;;;;;1761944;81;21056;-69
2022/03/27 01:27:52;;;;;;;6.62;1.55;;;;;;;;;;1761828;81;21072;-69
2022/03/27 01:30:18;;;;;;;3.98;1.35;;;;;;;;;;1761924;81;21531;-69
2022/03/27 01:32:45;;;;;;;3.10;1.70;;;;;;;;;;1761848;81;21028;-70
2022/03/27 01:35:12;;;;;;;2.65;1.50;;;;;;;;;;1761869;81;20993;-70
2022/03/27 01:37:39;;;;;;;2.50;1.20;;;;;;;;;;1761658;81;21554;-70
2022/03/27 01:40:06;;;;;;;3.08;1.30;;;;;;;;;;1761933;81;21072;-69
2022/03/27 01:42:33;;;;;;;2.12;1.30;;;;;;;;;;1761643;81;21056;-70
2022/03/27 01:44:59;;;;;;;3.08;1.70;;;;;;;;;;1761845;81;21021;-69
2022/03/27 01:47:27;;;;;;;2.25;1.60;;;;;;;;;;1761534;81;21110;-70
2022/03/27 01:49:53;;;;;;;3.47;1.72;;;;;;;;;;1761448;81;21037;-71
2022/03/27 01:52:19;;;;;;;2.62;1.52;;;;;;;;;;1761747;81;21068;-70
2022/03/27 01:54:46;;;;;;;7.33;1.95;;;;;;;;;;1761661;81;21020;-71
2022/03/27 01:57:13;;;;;;;2.60;1.80;;;;;;;;;;1761908;81;21112;-71
2022/03/27 01:59:39;;;;;;;6.62;2.15;;;;;;;;;;1761502;81;20993;-69
2022/03/27 02:02:05;;;;;;;6.03;2.15;;;;;;;;;;1761715;81;21091;-69
2022/03/27 02:04:32;;;;;;;3.70;2.08;;;;;;;;;;1736936;81;21143;-70
2022/03/27 02:06:58;;;;;;;8.53;2.08;;;;;;;;;;1730036;82;21076;-69
2022/03/27 02:09:26;;;;;;;3.77;1.62;;;;;;;;;;1723239;82;21658;-69
2022/03/27 02:11:53;;;;;;;5.10;1.90;;;;;;;;;;1717280;83;21069;-69
2022/03/27 02:14:19;;;;;;;6.22;1.80;;;;;;;;;;1717154;83;21069;-70
2022/03/27 02:16:46;;;;;;;2.83;1.85;;;;;;;;;;1717576;83;21108;-69
2022/03/27 02:19:12;;;;;;;2.55;1.82;;;;;;;;;;1717453;83;21034;-69
2022/03/27 02:21:40;;;;;;;3.85;2.37;;;;;;;;;;1716804;83;21073;-69
2022/03/27 02:24:06;;;;;;;3.10;2.30;;;;;;;;;;1716941;83;21026;-68
2022/03/27 02:26:33;;;;;;;5.15;1.82;;;;;;;;;;1716780;83;21096;-69
2022/03/27 02:28:59;;;;;;;4.20;2.30;;;;;;;;;;1717032;83;21104;-70
2022/03/27 02:31:25;;;;;;;5.08;1.98;;;;;;;;;;1716696;83;21065;-70
2022/03/27 02:33:52;;;;;;;4.12;2.15;;;;;;;;;;1716945;83;21085;-70
2022/03/27 02:36:18;;;;;;;2.37;1.90;;;;;;;;;;1716909;83;21117;-69
2022/03/27 02:38:44;;;;;;;3.80;2.12;;;;;;;;;;1717034;83;21493;-69
2022/03/27 02:41:11;;;;;;;3.52;2.08;;;;;;;;;;1717006;83;21529;-69
2022/03/27 02:43:38;;;;;;;4.37;2.00;;;;;;;;;;1717038;83;21034;-70
2022/03/27 02:46:05;;;;;;;5.22;1.90;;;;;;;;;;1716853;83;21057;-69
2022/03/27 02:48:31;;;;;;;5.10;1.95;;;;;;;;;;1717048;83;21549;-68
2022/03/27 02:50:58;;;;;;;3.33;1.92;;;;;;;;;;1716681;83;21069;-69
2022/03/27 02:53:24;;;;;;;6.42;1.80;;;;;;;;;;1716726;83;21033;-69
2022/03/27 02:55:51;;;;;;;1.80;1.50;;;;;;;;;;1717135;83;21046;-68
2022/03/27 02:58:17;;;;;;;4.87;1.70;;;;;;;;;;1716784;83;21061;-69
2022/03/27 03:00:44;;;;;;;3.35;1.98;;;;;;;;;;1716746;83;21408;-69
2022/03/27 03:03:11;;;;;;;3.42;1.90;;;;;;;;;;1716548;82;21120;-69
2022/03/27 03:05:38;;;;;;;3.33;2.00;;;;;;;;;;1716591;83;22130;-69
2022/03/27 03:08:06;;;;;;;3.20;1.85;;;;;;;;;;1716584;83;21068;-69
2022/03/27 03:10:34;;;;;;;3.75;2.15;;;;;;;;;;1727442;83;21060;-70
2022/03/27 03:13:01;;;;;;;3.80;2.33;;;;;;;;;;1713424;83;21072;-70
2022/03/27 03:15:29;;;;;;;6.25;2.58;;;;;;;;;;1729646;82;21072;-70
2022/03/27 03:17:56;;;;;;;4.25;2.33;;;;;;;;;;1729462;83;21061;-70
2022/03/27 03:20:23;;;;;;;4.55;2.65;;;;;;;;;;1729713;83;21560;-71
2022/03/27 03:22:50;;;;;;;4.17;2.25;;;;;;;;;;1729594;83;21053;-71
2022/03/27 03:25:16;;;;;;;7.78;2.47;;;;;;;;;;1729544;83;21108;-71
2022/03/27 03:27:42;;;;;;;6.05;2.52;;;;;;;;;;1729810;82;21028;-70
2022/03/27 03:30:10;;;;;;;4.00;2.15;;;;;;;;;;1729712;83;22200;-70
2022/03/27 03:32:36;;;;;;;3.17;1.87;;;;;;;;;;1729698;83;21024;-70
2022/03/27 03:35:04;;;;;;;3.67;2.15;;;;;;;;;;1729499;83;21099;-70
2022/03/27 03:37:31;;;;;;;4.90;2.35;;;;;;;;;;1729735;83;21534;-71
2022/03/27 03:39:57;;;;;;;3.67;2.20;;;;;;;;;;1729507;82;21056;-70
2022/03/27 03:42:24;;;;;;;3.60;2.10;;;;;;;;;;1729940;82;21564;-71
2022/03/27 03:44:51;;;;;;;2.42;1.98;;;;;;;;;;1729550;83;21013;-70
2022/03/27 03:47:17;;;;;;;1.35;1.25;;;;;;;;;;1729679;83;21033;-70
2022/03/27 03:49:45;;;;;;;1.40;1.30;;;;;;;;;;1729349;83;21115;-70
2022/03/27 03:52:11;;;;;;;1.37;1.27;;;;;;;;;;1729913;82;21041;-70
2022/03/27 03:54:38;;;;;;;1.85;1.50;;;;;;;;;;1729484;83;21096;-71
2022/03/27 03:57:05;;;;;;;3.62;1.80;;;;;;;;;;1729843;83;21056;-69
2022/03/27 03:59:33;;;;;;;2.42;1.50;;;;;;;;;;1729492;83;21013;-69
2022/03/27 04:02:00;;;;;;;3.35;1.42;;;;;;;;;;1729709;82;21096;-69
2022/03/27 04:04:27;;;;;;;2.33;1.22;;;;;;;;;;1729306;81;21449;-69
2022/03/27 04:06:53;;;;;;;2.65;1.50;;;;;;;;;;1729824;82;21009;-69
2022/03/27 04:09:20;;;;;;;3.02;1.50;;;;;;;;;;1729327;82;21060;-69
2022/03/27 04:11:47;;;;;;;2.52;1.42;;;;;;;;;;1729490;83;21033;-69
2022/03/27 04:14:13;;;;;;;1.92;1.50;;;;;;;;;;1729587;83;21104;-69
2022/03/27 04:16:43;;;;;;;4.97;1.55;;;;;;;;;;1729558;82;21049;-71
2022/03/27 04:19:09;;;;;;;1.85;1.47;;;;;;;;;;1729904;82;21111;-69
2022/03/27 04:21:35;;;;;;;1.67;1.50;;;;;;;;;;1729596;82;21041;-69
2022/03/27 04:24:01;;;;;;;2.15;1.40;;;;;;;;;;1729937;82;20974;-69
2022/03/27 04:26:27;;;;;;;1.80;1.50;;;;;;;;;;1729706;83;21048;-69
2022/03/27 04:28:54;;;;;;;4.70;1.80;;;;;;;;;;1729948;82;21127;-69
2022/03/27 04:31:20;;;;;;;4.00;1.45;;;;;;;;;;1729626;82;21037;-69
2022/03/27 04:33:47;;;;;;;5.20;2.15;;;;;;;;;;1729785;83;21145;-69
2022/03/27 04:36:13;;;;;;;1.77;1.50;;;;;;;;;;1729563;82;21006;-70
2022/03/27 04:38:39;;;;;;;2.83;2.05;;;;;;;;;;1729845;82;21001;-69
2022/03/27 04:41:06;;;;;;;2.33;1.40;;;;;;;;;;1729820;83;21606;-69
2022/03/27 04:43:33;;;;;;;4.30;1.60;;;;;;;;;;1729397;83;21076;-69
2022/03/27 04:46:01;;;;;;;2.35;1.50;;;;;;;;;;1729739;83;21076;-69
2022/03/27 04:48:27;;;;;;;4.25;1.40;;;;;;;;;;1729525;83;21052;-70
2022/03/27 04:50:55;;;;;;;2.08;1.35;;;;;;;;;;1729613;83;21080;-70
2022/03/27 04:53:21;;;;;;;2.15;1.52;;;;;;;;;;1729595;82;21057;-70
2022/03/27 04:55:48;;;;;;;1.47;1.37;;;;;;;;;;1729596;82;20998;-70
2022/03/27 04:58:16;;;;;;;5.78;1.60;;;;;;;;;;1729406;83;21068;-70
2022/03/27 05:00:43;;;;;;;3.10;1.70;;;;;;;;;;1729608;83;21068;-70
2022/03/27 05:03:11;;;;;;;2.98;2.00;;;;;;;;;;1729523;81;21069;-71
2022/03/27 05:05:38;;;;;;;1.57;1.42;;;;;;;;;;1729647;83;21519;-70
2022/03/27 05:08:05;;;;;;;3.12;1.52;;;;;;;;;;1729795;83;21080;-70
2022/03/27 05:10:33;;;;;;;2.12;1.62;;;;;;;;;;1721597;82;21054;-70
2022/03/27 05:12:59;;;;;;;2.62;1.60;;;;;;;;;;1716721;83;21025;-70
2022/03/27 05:15:27;;;;;;;2.10;1.50;;;;;;;;;;1716478;83;21080;-70
2022/03/27 05:17:55;;;;;;;1.67;1.50;;;;;;;;;;1716959;83;21045;-70
2022/03/27 05:20:22;;;;;;;3.55;2.00;;;;;;;;;;1716860;83;21561;-70
2022/03/27 05:22:48;;;;;;;2.62;1.90;;;;;;;;;;1716807;83;21497;-70
2022/03/27 05:25:15;;;;;;;7.10;2.75;;;;;;;;;;1716496;83;21054;-70
2022/03/27 05:27:42;;;;;;;6.75;2.08;;;;;;;;;;1716883;83;20998;-69
2022/03/27 05:30:09;;;;;;;6.35;2.55;;;;;;;;;;1716488;83;21084;-70
2022/03/27 05:32:35;;;;;;;7.22;3.02;;;;;;;;;;1716873;83;21026;-70
2022/03/27 05:35:02;;;;;;;5.37;2.60;;;;;;;;;;1716651;83;21084;-69
2022/03/27 05:37:29;;;;;;;2.80;2.15;;;;;;;;;;1716582;83;21096;-70
2022/03/27 05:39:55;;;;;;;7.55;3.12;;;;;;;;;;1716764;83;21038;-69
2022/03/27 05:42:23;;;;;;;10.82;2.83;;;;;;;;;;1716639;83;21130;-70
2022/03/27 05:44:49;;;;;;;11.08;2.75;;;;;;;;;;1717028;83;21469;-70
2022/03/27 05:47:16;;;;;;;3.58;2.60;;;;;;;;;;1716783;83;21069;-70
2022/03/27 05:49:44;;;;;;;2.85;1.85;;;;;;;;;;1716789;83;21564;-70
2022/03/27 05:52:14;;;;;;;6.42;1.90;;;;;;;;;;1716832;83;21069;-72
2022/03/27 05:54:39;;;;;;;4.35;2.10;;;;;;;;;;1716801;83;21122;-70
2022/03/27 05:57:05;;;;;;;2.62;1.92;;;;;;;;;;1716985;83;21053;-70
2022/03/27 05:59:32;;;;;;;6.35;2.60;;;;;;;;;;1717325;83;21033;-70
2022/03/27 06:01:58;;;;;;;2.50;1.87;;;;;;;;;;1716757;83;21037;-70
2022/03/27 06:04:24;;;;;;;1.45;1.35;;;;;;;;;;1716755;82;22204;-70
2022/03/27 06:06:51;;;;;;;2.92;1.70;;;;;;;;;;1717113;83;21533;-70
2022/03/27 06:09:18;;;;;;;3.08;1.70;;;;;;;;;;1716656;83;21144;-70
2022/03/27 06:11:45;;;;;;;2.67;2.20;;;;;;;;;;1729242;83;21045;-70
2022/03/27 06:14:12;;;;;;;2.33;1.82;;;;;;;;;;1729639;83;21077;-70
2022/03/27 06:16:39;;;;;;;9.70;2.70;;;;;;;;;;1729738;82;21061;-70
2022/03/27 06:19:05;;;;;;;3.65;2.70;;;;;;;;;;1729858;82;21040;-70
2022/03/27 06:21:32;;;;;;;6.72;3.42;;;;;;;;;;1729828;82;20994;-70
2022/03/27 06:23:59;;;;;;;4.03;2.77;;;;;;;;;;1729568;82;21572;-70
2022/03/27 06:26:25;;;;;;;4.50;2.87;;;;;;;;;;1729819;82;21049;-70
2022/03/27 06:28:52;;;;;;;4.12;2.40;;;;;;;;;;1729643;82;21643;-70
2022/03/27 06:31:18;;;;;;;3.22;2.25;;;;;;;;;;1730034;83;21061;-70
2022/03/27 06:33:45;;;;;;;5.55;2.72;;;;;;;;;;1729943;83;21068;-70
2022/03/27 06:36:12;;;;;;;3.22;2.50;;;;;;;;;;1729854;83;21037;-70
2022/03/27 06:38:38;;;;;;;4.80;2.45;;;;;;;;;;1729579;83;21044;-68
2022/03/27 06:41:06;;;;;;;4.45;2.47;;;;;;;;;;1713467;83;21025;-69
2022/03/27 06:43:36;;;;;;;4.47;2.60;;;;;;;;;;1729645;83;21045;-69
2022/03/27 06:46:03;;;;;;;4.25;2.22;;;;;;;;;;1729682;83;21076;-68
2022/03/27 06:48:29;;;;;;;3.25;2.05;;;;;;;;;;1729945;83;21488;-68
2022/03/27 06:50:56;;;;;;;3.30;1.90;;;;;;;;;;1729644;83;21564;-68
2022/03/27 06:53:24;;;;;;;3.55;2.30;;;;;;;;;;1729934;83;21069;-68
2022/03/27 06:55:51;;;;;;;5.08;2.22;;;;;;;;;;1729570;82;21061;-69
2022/03/27 06:58:19;;;;;;;2.85;2.30;;;;;;;;;;1729822;83;21049;-68
2022/03/27 07:03:32;;;;;;;4.15;2.00;;;;;;;;;;1729869;81;21073;-70
2022/03/27 07:05:59;;;;;;;2.55;1.92;;;;;;;;;;1729888;82;21044;-69
2022/03/27 07:08:26;;;;;;;4.05;1.90;;;;;;;;;;1730010;82;20992;-68
2022/03/27 07:10:55;;;;;;;2.98;1.70;;;;;;;;;;1723097;83;21058;-70
2022/03/27 07:13:22;;;;;;;2.25;1.42;;;;;;;;;;1717110;83;21018;-68
2022/03/27 07:15:50;;;;;;;1.40;1.30;;;;;;;;;;1716956;83;21533;-70
2022/03/27 07:18:17;;;;;;;1.60;1.50;;;;;;;;;;1717129;83;21560;-70
2022/03/27 07:20:46;;;;;;;3.85;1.40;;;;;;;;;;1716902;83;21072;-71
2022/03/27 07:23:15;;;;;;;1.85;1.27;;;;;;;;;;1717042;83;21053;-72
2022/03/27 07:25:42;;;;;;;1.60;1.47;;;;;;;;;;1716824;83;21045;-72
2022/03/27 07:28:10;;;;;;;1.47;1.37;;;;;;;;;;1716890;83;21050;-72
2022/03/27 07:30:37;;;;;;;1.17;1.15;;;;;;;;;;1716774;83;21096;-71
2022/03/27 07:33:03;;;;;;;1.72;1.62;;;;;;;;;;1716935;83;21032;-70
2022/03/27 07:35:31;;;;;;;2.65;1.67;;;;;;;;;;1716926;83;21006;-70
2022/03/27 07:37:58;;;;;;;4.97;1.60;;;;;;;;;;1717098;83;21009;-71
2022/03/27 07:40:25;;;;;;;2.42;1.70;;;;;;;;;;1716948;83;21077;-71
2022/03/27 07:42:54;;;;;;;3.12;1.80;;;;;;;;;;1716720;83;21060;-71
2022/03/27 07:45:22;;;;;;;2.35;1.65;;;;;;;;;;1716911;83;21019;-71
2022/03/27 07:47:50;;;;;;;7.15;2.10;;;;;;;;;;1716995;83;21278;-71
2022/03/27 07:50:17;;;;;;;2.70;2.02;;;;;;;;;;1716919;83;21033;-72
2022/03/27 07:52:45;;;;;;;2.90;1.80;;;;;;;;;;1716776;83;21068;-71
2022/03/27 07:55:13;;;;;;;3.60;2.40;;;;;;;;;;1716858;83;21505;-71
2022/03/27 07:57:42;;;;;;;2.17;1.75;;;;;;;;;;1716783;83;21001;-71
2022/03/27 08:00:10;;;;;;;2.92;1.60;;;;;;;;;;1716823;83;21651;-70
2022/03/27 08:02:40;;;;;;;1.70;1.40;;;;;;;;;;1716607;82;21113;-70
2022/03/27 08:05:08;;;;;;;1.60;1.42;;;;;;;;;;1716904;83;21018;-70
2022/03/27 08:07:37;;;;;;;3.12;1.82;;;;;;;;;;1716904;83;21021;-71
2022/03/27 08:10:08;;;;;;;3.50;2.02;;;;;;;;;;1717219;83;21576;-70
2022/03/27 08:12:36;;;;;;;2.45;1.77;;;;;;;;;;1729663;82;21048;-71
2022/03/27 08:15:04;;;;;;;2.62;1.67;;;;;;;;;;1729565;83;21544;-71
2022/03/27 08:17:33;;;;;;;1.80;1.60;;;;;;;;;;1729847;82;21040;-72
2022/03/27 08:20:00;;;;;;;3.12;1.57;;;;;;;;;;1729737;82;21491;-72
2022/03/27 08:22:28;;;;;;;3.20;1.80;;;;;;;;;;1729857;83;21496;-71
2022/03/27 08:24:56;;;;;;;2.83;1.80;;;;;;;;;;1729728;83;22204;-71
2022/03/27 08:27:23;;;;;;;3.83;2.27;;;;;;;;;;1729796;83;21094;-71
2022/03/27 08:29:51;;;;;;;3.58;2.25;;;;;;;;;;1729611;83;21559;-71
2022/03/27 08:32:19;;;;;;;3.05;1.92;;;;;;;;;;1729885;83;21021;-71
2022/03/27 08:34:47;;;;;;;5.12;1.85;;;;;;;;;;1729805;82;21236;-71
2022/03/27 08:37:15;;;;;;;5.87;1.98;;;;;;;;;;1729902;83;20997;-71
2022/03/27 08:39:44;;;;;;;2.87;2.20;;;;;;;;;;1729725;83;21524;-70
2022/03/27 08:42:12;;;;;;;2.92;2.05;;;;;;;;;;1729815;83;21096;-71
2022/03/27 08:44:39;;;;;;;3.55;1.98;;;;;;;;;;1729896;83;21497;-71
2022/03/27 08:47:17;;;;;;;2.30;1.60;;;;;;;;;;1729923;83;21004;-71
2022/03/27 08:49:48;;;;;;;1.85;1.65;;;;;;;;;;1729903;83;21088;-71
2022/03/27 08:52:21;;;;;;;2.30;1.82;;;;;;;;;;1729796;83;21513;-70
2022/03/27 08:55:02;;;;;;;3.27;1.60;;;;;;;;;;1729846;83;21520;-71
2022/03/27 08:57:38;;;;;;;1.77;1.67;;;;;;;;;;1730105;83;21012;-70
2022/03/27 09:00:07;;;;;;;1.82;1.50;;;;;;;;;;1729617;83;21037;-71
2022/03/27 09:02:35;;;;;;;3.62;1.67;;;;;;;;;;1713413;81;21048;-72
2022/03/27 09:05:04;;;;;;;3.37;1.70;;;;;;;;;;1729592;83;21083;-72
2022/03/27 09:07:32;;;;;;;2.00;1.80;;;;;;;;;;1729644;83;21068;-72
2022/03/27 09:10:02;;;;;;;1.98;1.60;;;;;;;;;;1729405;82;21090;-71
2022/03/27 09:12:30;;;;;;;3.05;1.75;;;;;;;;;;1717665;82;21057;-71
2022/03/27 09:14:59;;;;;;;2.87;1.75;;;;;;;;;;1716685;83;21038;-70
2022/03/27 09:17:28;;;;;;;2.10;1.60;;;;;;;;;;1716681;83;21057;-72
2022/03/27 09:19:55;;;;;;;2.27;1.80;;;;;;;;;;1716845;83;21089;-73
2022/03/27 09:22:29;;;;;;;2.27;1.77;;;;;;;;;;1716771;83;21513;-71
2022/03/27 09:24:57;;;;;;;2.52;1.67;;;;;;;;;;1717030;83;21033;-71
2022/03/27 09:27:31;;;;;;;2.42;1.77;;;;;;;;;;1716773;83;21022;-70
2022/03/27 09:30:02;;;;;;;4.85;1.90;;;;;;;;;;1716871;83;21088;-71
2022/03/27 09:32:30;;;;;;;2.22;1.60;;;;;;;;;;1716800;83;21121;-71
2022/03/27 09:34:57;;;;;;;1.80;1.60;;;;;;;;;;1716935;83;21069;-71
2022/03/27 09:37:31;;;;;;;2.37;1.57;;;;;;;;;;1716945;83;21069;-72
2022/03/27 09:39:57;;;;;;;;;;;;;;;;;;1719554;83;21551;-71
2022/03/27 09:42:25;;;;;;;2.20;1.87;;;;;;;;;;1716788;83;20103;-71
2022/03/27 09:45:11;;;;;;;2.10;1.60;;;;;;;;;;1717107;83;21061;-70
2022/03/27 09:47:40;;;;;;;1.82;1.55;;;;;;;;;;1717035;83;21509;-70
2022/03/27 09:50:08;;;;;;;2.87;1.77;;;;;;;;;;1716861;83;21041;-72
2022/03/27 09:52:37;;;;;;;4.17;2.00;;;;;;;;;;1716962;83;21026;-71
2022/03/27 09:55:07;;;;;;;4.45;1.80;;;;;;;;;;1717028;83;20962;-71
2022/03/27 09:57:38;;;;;;;4.95;2.17;;;;;;;;;;1717023;83;21017;-71
2022/03/27 10:00:13;;;;;;;3.65;2.22;;;;;;;;;;1716947;83;21073;-71
2022/03/27 10:02:41;;;;;;;3.98;2.22;;;;;;;;;;1716923;82;21009;-71
2022/03/27 10:05:10;;;;;;;5.47;2.17;;;;;;;;;;1716870;83;21057;-71
2022/03/27 10:07:39;;;;;;;4.33;2.25;;;;;;;;;;1717108;83;21030;-71
2022/03/27 10:10:06;;;;;;;3.65;2.27;;;;;;;;;;1716979;83;21540;-70
2022/03/27 10:12:37;;;;;;;4.75;2.50;;;;;;;;;;1727947;83;21074;-71
2022/03/27 10:15:12;;;;;;;3.02;2.25;;;;;;;;;;1729966;83;21087;-71
2022/03/27 10:17:39;;;;;;;4.78;2.58;;;;;;;;;;1729921;82;21497;-73
2022/03/27 10:20:16;;;;;;;2.45;2.00;;;;;;;;;;1730136;82;21037;-70
2022/03/27 10:22:47;;;;;;;4.10;2.35;;;;;;;;;;1729559;82;21029;-71
2022/03/27 10:25:16;;;;;;;2.50;1.72;;;;;;;;;;1729870;82;20993;-70
2022/03/27 10:27:43;;;;;;;2.33;1.82;;;;;;;;;;1729792;82;21048;-71
2022/03/27 10:30:11;;;;;;;2.92;1.82;;;;;;;;;;1729741;82;21543;-71
2022/03/27 10:32:40;;;;;;;3.40;1.80;;;;;;;;;;1729761;82;21072;-71
2022/03/27 10:35:21;;;;;;;4.42;2.35;;;;;;;;;;1729894;83;21539;-71
2022/03/27 10:38:00;;;;;;;4.45;2.45;;;;;;;;;;1729840;83;21052;-71
2022/03/27 10:40:35;;;;;;;2.87;2.10;;;;;;;;;;1729723;82;21059;-71
2022/03/27 10:43:04;;;;;;;4.50;1.98;;;;;;;;;;1729711;83;20981;-71
2022/03/27 10:45:32;;;;;;;3.00;2.15;;;;;;;;;;1729743;83;21563;-71
2022/03/27 10:48:14;;;;;;;5.85;2.30;;;;;;;;;;1729740;83;21056;-70
2022/03/27 10:50:47;;;;;;;3.75;2.40;;;;;;;;;;1729580;83;21588;-71
2022/03/27 10:53:15;;;;;;;3.62;2.35;;;;;;;;;;1729995;83;21659;-70
2022/03/27 10:55:43;;;;;;;4.12;2.42;;;;;;;;;;1729763;83;21548;-69
2022/03/27 10:58:29;;;;;;;4.05;2.33;;;;;;;;;;1729886;82;21009;-71
2022/03/27 11:00:57;;;;;;;4.17;2.20;;;;;;;;;;1729683;83;21047;-71
2022/03/27 11:03:44;;;;;;;5.53;1.90;;;;;;;;;;1729731;81;21122;-70
2022/03/27 11:06:22;;;;;;;4.28;1.87;;;;;;;;;;1729700;83;21068;-70
2022/03/27 11:08:53;;;;;;;2.72;1.90;;;;;;;;;;1729849;82;21080;-71
2022/03/27 11:11:36;;;;;;;3.50;2.17;;;;;;;;;;1726411;82;21034;-71
2022/03/27 11:14:04;;;;;;;5.50;2.35;;;;;;;;;;1716738;83;21061;-71
2022/03/27 11:16:33;;;;;;;4.97;2.00;;;;;;;;;;1716899;83;21045;-72
2022/03/27 11:19:01;;;;;;;4.08;2.30;;;;;;;;;;1716879;83;21084;-72
2022/03/27 11:21:31;;;;;;;5.75;1.98;;;;;;;;;;1716701;83;21121;-71
2022/03/27 11:24:04;;;;;;;3.62;2.27;;;;;;;;;;1716729;83;21069;-71
2022/03/27 11:26:32;;;;;;;6.92;2.60;;;;;;;;;;1716806;83;21041;-71
2022/03/27 11:29:05;;;;;;;6.40;2.37;;;;;;;;;;1716845;83;21045;-71
2022/03/27 11:31:34;;;;;;;3.37;2.10;;;;;;;;;;1714214;83;21058;-71
2022/03/27 11:34:13;;;;;;;3.00;2.20;;;;;;;;;;1717034;83;21850;-70
2022/03/27 11:36:41;;;;;;;6.80;2.27;;;;;;;;;;1716970;83;21058;-70
2022/03/27 11:39:16;;;;;;;3.83;2.40;;;;;;;;;;1717041;83;21541;-71
2022/03/27 11:41:44;;;;;;;3.85;2.33;;;;;;;;;;1715755;83;21014;-70
2022/03/27 11:44:26;;;;;;;3.72;2.50;;;;;;;;;;1717101;83;21013;-70
2022/03/27 11:46:54;;;;;;;3.72;1.95;;;;;;;;;;1715197;83;21546;-70
2022/03/27 11:49:23;;;;;;;4.53;2.20;;;;;;;;;;1716984;83;21057;-70
2022/03/27 11:52:09;;;;;;;4.45;2.25;;;;;;;;;;1716767;83;21041;-71
2022/03/27 11:54:37;;;;;;;4.30;2.80;;;;;;;;;;1716852;83;21501;-70
2022/03/27 11:57:05;;;;;;;4.10;2.65;;;;;;;;;;1716862;83;21516;-71
2022/03/27 11:59:49;;;;;;;5.00;2.70;;;;;;;;;;1716856;83;21033;-71
2022/03/27 12:02:17;;;;;;;4.55;2.40;;;;;;;;;;1717024;83;21021;-70
2022/03/27 12:04:54;;;;;;;5.20;2.40;;;;;;;;;;1716802;82;21616;-71
2022/03/27 12:07:22;;;;;;;4.90;2.37;;;;;;;;;;1716791;83;21494;-71
2022/03/27 12:09:59;;;;;;;3.87;2.30;;;;;;;;;;1716897;83;21050;-71
2022/03/27 12:12:27;;;;;;;3.95;2.40;;;;;;;;;;1716627;83;21096;-71
2022/03/27 12:14:55;;;;;;;4.30;2.55;;;;;;;;;;1706752;83;21068;-70
2022/03/27 12:17:23;;;;;;;8.10;2.42;;;;;;;;;;1716549;83;21580;-70
2022/03/27 12:19:58;;;;;;;4.10;2.20;;;;;;;;;;1716883;83;21023;-70
2022/03/27 12:22:41;;;;;;;3.65;2.20;;;;;;;;;;1716546;83;21045;-71
2022/03/27 12:25:11;;;;;;;4.15;2.05;;;;;;;;;;1716910;83;21093;-70
2022/03/27 12:30:36;;;;;;;4.37;2.40;;;;;;;;;;1716639;83;21092;-70
2022/03/27 12:33:07;;;;;;;4.40;2.30;;;;;;;;;;1716769;83;21400;-71
2022/03/27 12:35:35;;;;;;;4.65;1.98;;;;;;;;;;1716930;83;21509;-71
2022/03/27 12:38:04;;;;;;;3.47;2.42;;;;;;;;;;1716889;83;21045;-71
2022/03/27 12:40:33;;;;;;;2.75;1.90;;;;;;;;;;1716926;83;21045;-73
2022/03/27 12:43:13;;;;;;;3.62;2.20;;;;;;;;;;1715894;83;21580;-70
2022/03/27 12:45:44;;;;;;;4.30;2.47;;;;;;;;;;1716720;83;21532;-71
2022/03/27 12:48:21;;;;;;;9.63;2.72;;;;;;;;;;1716744;83;21520;-70
2022/03/27 12:50:49;;;;;;;3.72;2.42;;;;;;;;;;1706614;83;21573;-71
2022/03/27 12:53:21;;;;;;;3.85;2.30;;;;;;;;;;1716919;83;21473;-70
2022/03/27 12:55:49;;;;;;;;;;;;;;;;;;1709556;83;21074;-70
2022/03/27 12:58:18;;;;;;;5.22;2.70;;;;;;;;;;1716784;83;20150;-70
2022/03/27 13:00:48;;;;;;;5.22;2.72;;;;;;;;;;1716828;83;21014;-71
2022/03/27 13:03:25;;;;;;;5.22;2.70;;;;;;;;;;1715499;82;21144;-71
2022/03/27 13:05:56;;;;;;;6.25;2.47;;;;;;;;;;1706755;83;21383;-70
2022/03/27 13:08:27;;;;;;;3.05;2.10;;;;;;;;;;1716747;83;21112;-70
2022/03/27 13:10:57;;;;;;;7.15;2.55;;;;;;;;;;1706695;83;21025;-71
2022/03/27 13:13:33;;;;;;;3.62;2.30;;;;;;;;;;1712650;83;21028;-70
2022/03/27 13:16:04;;;;;;;4.37;2.62;;;;;;;;;;1729677;83;21543;-71
2022/03/27 13:18:32;;;;;;;4.40;2.33;;;;;;;;;;1725948;82;21092;-70
2022/03/27 13:21:00;;;;;;;4.22;2.10;;;;;;;;;;1729559;82;21021;-71
2022/03/27 13:23:29;;;;;;;4.22;2.40;;;;;;;;;;1711270;83;21591;-71
2022/03/27 13:27:14;;;;;;;7.30;3.30;;;;;;;;;;1801935;79;23356;-73
2022/03/27 13:29:42;;;;;;;10.80;3.35;;;;;;;;;;1761893;81;20989;-73
2022/03/27 13:32:09;;;;;;;4.12;2.62;;;;;;;;;;1761570;81;21064;-73
2022/03/27 13:34:35;;;;;;;5.47;2.80;;;;;;;;;;1761912;81;21523;-70
2022/03/27 13:37:04;;;;;;;4.80;2.52;;;;;;;;;;1761792;81;20988;-73
2022/03/27 13:39:31;;;;;;;4.72;2.40;;;;;;;;;;1742780;81;21032;-72
2022/03/27 13:44:45;;;;;;;4.25;2.70;;;;;;;;;;1761750;81;21024;-69
2022/03/27 13:47:12;;;;;;;5.35;2.95;;;;;;;;;;1761746;81;21036;-72
2022/03/27 13:49:38;;;;;;;8.50;3.60;;;;;;;;;;1762051;81;20977;-72
2022/03/27 13:52:06;;;;;;;7.60;3.50;;;;;;;;;;1761519;81;21072;-71
2022/03/27 13:54:35;;;;;;;10.20;4.62;;;;;;;;;;1761833;81;21056;-72
2022/03/27 13:57:02;;;;;;;15.40;5.60;;;;;;;;;;1716744;80;75397;-74
2022/03/27 13:59:28;;;;;;;7.50;4.25;;;;;;;;;;1688409;85;21049;-74
2022/03/27 14:01:58;;;;;;;15.00;5.95;;;;;;;;;;1676054;85;21081;-75
2022/03/27 14:04:24;;;;;;;11.48;4.30;;;;;;;;;;1675994;84;21676;-76
2022/03/27 14:06:51;;;;;;;12.03;4.58;;;;;;;;;;1676190;85;21113;-74
2022/03/27 14:09:19;;;;;;;7.67;3.77;;;;;;;;;;1676454;85;21125;-75
2022/03/27 14:11:47;;;;;;;7.42;3.87;;;;;;;;;;1651948;87;21105;-74
2022/03/27 14:14:14;;;;;;;7.30;3.65;;;;;;;;;;1676010;86;21081;-75
2022/03/27 14:16:43;;;;;;;9.00;3.47;;;;;;;;;;1651707;87;21533;-74
2022/03/27 14:19:11;;;;;;;7.62;3.20;;;;;;;;;;1676350;85;21025;-75
2022/03/27 14:21:39;;;;;;;5.65;3.42;;;;;;;;;;1650993;85;21037;-74
2022/03/27 14:24:09;;;;;;;6.60;3.20;;;;;;;;;;1676008;86;21089;-75
2022/03/27 14:26:37;;;;;;;6.45;2.87;;;;;;;;;;1676218;85;21062;-75
2022/03/27 14:29:03;;;;;;;10.30;4.00;;;;;;;;;;1676206;85;21632;-74
2022/03/27 14:31:30;;;;;;;6.35;3.85;;;;;;;;;;1676085;86;21557;-74
2022/03/27 14:33:56;;;;;;;8.10;4.20;;;;;;;;;;1651823;87;21018;-75
2022/03/27 14:36:23;;;;;;;7.58;3.70;;;;;;;;;;1676428;85;21057;-75
2022/03/27 14:38:51;;;;;;;5.90;2.77;;;;;;;;;;1675918;86;21089;-75
2022/03/27 14:41:18;;;;;;;4.40;2.80;;;;;;;;;;1651012;86;21602;-76
2022/03/27 14:43:44;;;;;;;6.80;3.10;;;;;;;;;;1675939;86;21092;-75
2022/03/27 14:46:13;;;;;;;5.45;3.22;;;;;;;;;;1675832;86;21534;-74
2022/03/27 14:48:40;;;;;;;6.10;3.70;;;;;;;;;;1675622;86;21101;-76
2022/03/27 14:51:09;;;;;;;5.75;3.30;;;;;;;;;;1675748;86;21105;-74
2022/03/27 14:56:06;;;;;;;6.15;3.20;;;;;;;;;;1639706;84;21061;-76
2022/03/27 14:58:34;;;;;;;6.20;3.15;;;;;;;;;;1627900;87;21048;-73
2022/03/27 15:01:01;;;;;;;4.15;2.77;;;;;;;;;;1654079;87;21079;-75
2022/03/27 15:03:30;;;;;;;4.55;2.87;;;;;;;;;;1628402;87;21068;-74
2022/03/27 15:05:58;;;;;;;8.80;3.75;;;;;;;;;;1654122;87;21072;-76
2022/03/27 15:08:26;;;;;;;6.58;3.52;;;;;;;;;;1654379;86;21025;-75
2022/03/27 15:10:56;;;;;;;7.72;3.75;;;;;;;;;;1654203;86;21100;-75